Time;durP1;ratioP1;P1;durP2;ratioP2;P2;SDS_P1;SDS_P2;PMS_P1;PMS_P2;Temp;Humidity;BMP_temperature;BMP_pressure;BME280_temperature;BME280_humidity;BME280_pressure;Samples;Min_cycle;Max_cycle;Signal;HPM_P1;HPM_P2
2022/08/05 00:00:17;;;;;;;3.25;2.80;;;21.30;93.30;;;;;;4930195;29;20046;-78
2022/08/05 00:02:44;;;;;;;3.75;2.58;;;21.20;93.90;;;;;;4930895;29;20119;-78
2022/08/05 00:05:10;;;;;;;3.40;2.70;;;21.20;94.10;;;;;;4928233;29;20038;-79
2022/08/05 00:07:36;;;;;;;3.58;2.90;;;21.10;94.60;;;;;;4930470;29;20035;-79
2022/08/05 00:10:02;;;;;;;3.80;2.70;;;21.00;94.70;;;;;;4928273;29;20055;-78
2022/08/05 00:12:27;;;;;;;3.22;2.97;;;20.90;95.20;;;;;;4929389;29;20489;-79
2022/08/05 00:14:53;;;;;;;2.88;2.65;;;20.70;95.30;;;;;;4913121;29;20044;-78
2022/08/05 00:17:18;;;;;;;4.53;2.40;;;20.60;96.50;;;;;;4931430;29;20115;-78
2022/08/05 00:19:44;;;;;;;4.85;2.90;;;20.60;95.60;;;;;;4929491;29;20024;-79
2022/08/05 00:22:10;;;;;;;4.28;2.92;;;20.70;95.70;;;;;;4928793;29;21009;-78
2022/08/05 00:24:35;;;;;;;7.15;2.67;;;20.70;96.20;;;;;;4929904;29;20062;-79
2022/08/05 00:27:01;;;;;;;3.85;2.80;;;20.70;95.70;;;;;;4929955;29;20035;-78
2022/08/05 00:29:27;;;;;;;3.85;2.72;;;20.60;96.30;;;;;;4935708;29;20036;-78
2022/08/05 00:31:54;;;;;;;5.25;2.80;;;20.50;99.10;;;;;;4933883;29;20114;-78
2022/08/05 00:34:19;;;;;;;4.25;2.83;;;20.10;99.90;;;;;;4931077;29;20040;-79
2022/08/05 00:36:45;;;;;;;3.75;2.80;;;20.10;99.80;;;;;;4938750;29;20095;-81
2022/08/05 00:39:11;;;;;;;3.10;2.80;;;20.10;98.40;;;;;;4931845;29;20042;-78
2022/08/05 00:41:37;;;;;;;3.70;3.40;;;20.20;98.00;;;;;;4916562;29;20559;-78
2022/08/05 00:44:03;;;;;;;3.53;3.22;;;20.20;98.80;;;;;;4936281;29;20040;-78
2022/08/05 00:46:29;;;;;;;4.88;3.45;;;20.10;99.00;;;;;;4933659;29;20479;-78
2022/08/05 00:48:55;;;;;;;3.60;3.28;;;20.00;99.90;;;;;;4932215;29;20043;-78
2022/08/05 00:51:22;;;;;;;3.55;3.25;;;20.00;99.90;;;;;;4934739;29;20035;-78
2022/08/05 00:53:48;;;;;;;4.20;3.40;;;20.00;99.80;;;;;;4932398;29;20090;-78
2022/08/05 00:56:16;;;;;;;5.63;3.65;;;20.10;99.60;;;;;;4934802;29;20075;-78
2022/08/05 00:58:42;;;;;;;4.20;3.20;;;20.10;99.60;;;;;;4932976;29;20419;-78
2022/08/05 01:01:10;;;;;;;4.78;3.35;;;20.10;98.70;;;;;;4932563;29;20055;-78
2022/08/05 01:03:37;;;;;;;3.25;2.92;;;20.20;99.20;;;;;;4933858;29;20043;-78
2022/08/05 01:06:03;;;;;;;3.67;2.90;;;20.20;97.90;;;;;;4932906;29;20039;-78
2022/08/05 01:08:29;;;;;;;3.95;3.00;;;20.20;99.00;;;;;;4934026;29;20061;-78
2022/08/05 01:11:01;;;;;;;3.88;3.05;;;20.20;99.90;;;;;;4933529;29;20039;-78
2022/08/05 01:13:39;;;;;;;6.57;3.17;;;20.00;99.90;;;;;;4931294;29;20111;-79
2022/08/05 01:16:12;;;;;;;5.15;3.30;;;19.40;99.90;;;;;;4933264;29;20042;-78
2022/08/05 01:18:43;;;;;;;5.18;2.85;;;18.70;99.90;;;;;;4933754;29;20077;-78
2022/08/05 01:21:12;;;;;;;5.40;3.55;;;18.90;99.90;;;;;;4934204;29;20050;-78
2022/08/05 01:24:05;;;;;;;6.28;3.60;;;18.90;99.90;;;;;;4932829;29;20031;-78
2022/08/05 01:26:38;;;;;;;4.57;3.00;;;18.90;99.90;;;;;;4933133;29;20087;-78
2022/08/05 01:29:30;;;;;;;4.32;2.85;;;19.10;99.90;;;;;;4933835;29;20391;-78
2022/08/05 01:32:01;;;;;;;4.18;3.50;;;19.00;99.90;;;;;;4930033;29;20043;-78
2022/08/05 01:35:08;;;;;;;3.55;2.78;;;18.80;99.90;;;;;;4932060;29;20096;-78
2022/08/05 01:37:51;;;;;;;3.83;3.05;;;18.90;99.90;;;;;;4914721;29;20099;-78
2022/08/05 01:40:18;;;;;;;3.38;3.08;;;19.10;99.90;;;;;;4933922;29;20156;-78
2022/08/05 01:42:45;;;;;;;3.00;2.80;;;19.10;99.90;;;;;;4930063;29;20130;-78
2022/08/05 01:45:13;;;;;;;4.07;2.90;;;19.10;99.90;;;;;;4930501;29;20028;-78
2022/08/05 01:47:40;;;;;;;4.25;2.83;;;19.10;99.90;;;;;;4932350;29;20043;-78
2022/08/05 01:50:14;;;;;;;3.13;2.80;;;19.00;99.90;;;;;;4933702;29;20040;-78
2022/08/05 01:52:43;;;;;;;4.38;3.13;;;19.10;99.90;;;;;;4931042;29;20070;-78
2022/08/05 01:55:11;;;;;;;3.13;2.80;;;19.10;99.90;;;;;;4932855;29;20514;-78
2022/08/05 01:57:40;;;;;;;3.58;3.22;;;19.10;99.90;;;;;;4932847;29;20533;-78
2022/08/05 02:00:08;;;;;;;4.93;3.30;;;19.10;99.90;;;;;;4933755;29;20040;-78
2022/08/05 02:02:37;;;;;;;8.48;3.25;;;19.10;99.90;;;;;;4930851;29;20349;-78
2022/08/05 02:05:06;;;;;;;3.33;3.03;;;19.20;99.90;;;;;;4934838;29;20040;-78
2022/08/05 02:07:33;;;;;;;3.78;3.08;;;19.30;99.90;;;;;;4932944;29;20035;-78
2022/08/05 02:09:59;;;;;;;4.50;3.10;;;19.20;99.90;;;;;;4931344;29;20036;-78
2022/08/05 02:12:28;;;;;;;3.50;2.92;;;19.20;99.90;;;;;;4934047;29;20520;-78
2022/08/05 02:15:05;;;;;;;4.22;3.72;;;19.10;99.90;;;;;;4934622;29;20245;-78
2022/08/05 02:17:40;;;;;;;4.20;3.80;;;18.80;99.90;;;;;;4930864;29;21262;-78
2022/08/05 02:20:10;;;;;;;3.72;3.42;;;18.60;99.90;;;;;;4931432;29;20039;-78
2022/08/05 02:22:46;;;;;;;4.00;3.30;;;18.70;99.90;;;;;;4933925;29;20023;-78
2022/08/05 02:25:17;;;;;;;4.25;3.28;;;18.60;99.90;;;;;;4932966;29;20111;-78
2022/08/05 02:27:47;;;;;;;3.58;3.28;;;18.60;99.90;;;;;;4932454;29;20042;-78
2022/08/05 02:30:14;;;;;;;4.28;3.40;;;18.70;99.90;;;;;;4915081;29;20475;-78
2022/08/05 02:32:42;;;;;;;3.45;3.15;;;18.80;99.90;;;;;;4932907;29;20044;-78
2022/08/05 02:35:12;;;;;;;3.97;3.30;;;18.90;99.90;;;;;;4930697;29;20054;-78
2022/08/05 02:37:39;;;;;;;3.38;3.08;;;18.90;99.90;;;;;;4931841;29;20386;-78
2022/08/05 02:40:07;;;;;;;4.00;3.53;;;18.70;99.90;;;;;;4933528;29;20075;-79
2022/08/05 02:42:34;;;;;;;4.20;3.42;;;18.50;99.90;;;;;;4934156;29;20067;-79
2022/08/05 02:45:01;;;;;;;5.05;3.80;;;18.30;99.90;;;;;;4915677;29;20158;-78
2022/08/05 02:47:29;;;;;;;4.03;3.43;;;18.10;99.90;;;;;;4934191;29;20023;-78
2022/08/05 02:49:55;;;;;;;4.60;3.97;;;17.80;99.90;;;;;;4931507;29;20314;-78
2022/08/05 02:52:21;;;;;;;4.15;3.75;;;17.40;99.90;;;;;;4932930;29;20063;-78
2022/08/05 02:54:47;;;;;;;4.43;3.35;;;17.50;99.90;;;;;;4932953;29;20042;-77
2022/08/05 02:57:16;;;;;;;4.07;3.40;;;17.70;99.90;;;;;;4932814;29;20423;-77
2022/08/05 02:59:44;;;;;;;4.70;3.83;;;17.90;99.90;;;;;;4933894;29;20024;-78
2022/08/05 03:02:10;;;;;;;;;;;18.10;99.90;;;;;;4932379;29;20052;-77
2022/08/05 03:04:37;;;;;;;5.85;3.35;;;18.10;99.90;;;;;;4931587;29;19925;-77
2022/08/05 03:07:03;;;;;;;3.80;3.50;;;18.10;99.90;;;;;;4932169;29;20140;-78
2022/08/05 03:09:29;;;;;;;6.70;3.47;;;18.00;99.90;;;;;;4933165;29;20551;-77
2022/08/05 03:11:54;;;;;;;5.50;3.83;;;17.90;99.90;;;;;;4928338;29;20123;-78
2022/08/05 03:14:20;;;;;;;4.85;3.60;;;17.80;99.90;;;;;;4931118;29;20046;-77
2022/08/05 03:16:46;;;;;;;3.92;3.63;;;17.50;99.90;;;;;;4928716;29;20054;-77
2022/08/05 03:19:11;;;;;;;4.07;3.60;;;17.40;99.90;;;;;;4935397;29;20048;-77
2022/08/05 03:21:37;;;;;;;3.85;3.50;;;17.30;99.90;;;;;;4932273;29;20117;-78
2022/08/05 03:24:03;;;;;;;5.78;3.80;;;17.50;99.90;;;;;;4931165;29;20603;-78
2022/08/05 03:26:29;;;;;;;5.45;3.38;;;17.70;99.90;;;;;;4927186;29;20030;-78
2022/08/05 03:28:55;;;;;;;3.83;3.38;;;17.80;99.90;;;;;;4930298;29;20035;-77
2022/08/05 03:31:21;;;;;;;5.10;4.07;;;17.90;99.90;;;;;;4925784;29;20410;-77
2022/08/05 03:33:47;;;;;;;4.10;3.70;;;17.70;99.90;;;;;;4931925;29;20467;-77
2022/08/05 03:36:12;;;;;;;4.57;3.67;;;17.70;99.90;;;;;;4932902;29;20039;-78
2022/08/05 03:38:41;;;;;;;5.05;3.70;;;17.80;99.90;;;;;;4932485;29;20110;-78
2022/08/05 03:41:07;;;;;;;4.65;3.90;;;17.80;99.90;;;;;;4934854;29;20032;-78
2022/08/05 03:43:33;;;;;;;5.20;3.90;;;17.90;99.90;;;;;;4933822;29;20031;-77
2022/08/05 03:45:59;;;;;;;4.57;3.83;;;17.90;99.90;;;;;;4930192;29;20945;-78
2022/08/05 03:48:26;;;;;;;4.43;4.10;;;18.00;99.90;;;;;;4931249;29;20032;-78
2022/08/05 03:51:02;;;;;;;6.43;4.17;;;17.80;99.90;;;;;;4929547;29;20037;-77
2022/08/05 03:53:35;;;;;;;4.80;4.40;;;17.60;99.90;;;;;;4930128;29;20134;-77
2022/08/05 03:56:30;;;;;;;5.45;3.90;;;17.30;99.90;;;;;;4928752;29;20051;-77
2022/08/05 03:59:00;;;;;;;4.63;3.80;;;17.30;99.90;;;;;;4930307;29;20075;-77
2022/08/05 04:01:29;;;;;;;5.30;3.70;;;17.30;99.90;;;;;;4931472;29;20122;-78
2022/08/05 04:03:56;;;;;;;4.20;3.80;;;17.40;99.90;;;;;;4931991;29;20043;-78
2022/08/05 04:06:22;;;;;;;4.97;3.70;;;17.60;99.90;;;;;;4928448;29;20146;-78
2022/08/05 04:08:48;;;;;;;4.57;3.70;;;17.70;99.90;;;;;;4931356;29;20371;-78
2022/08/05 04:11:14;;;;;;;4.72;3.78;;;17.90;99.90;;;;;;4936252;29;20115;-78
2022/08/05 04:13:41;;;;;;;4.55;3.70;;;18.00;99.90;;;;;;4933210;29;20054;-77
2022/08/05 04:16:08;;;;;;;4.20;3.80;;;18.10;99.90;;;;;;4928108;29;20047;-77
2022/08/05 04:18:34;;;;;;;5.03;3.90;;;18.20;99.90;;;;;;4931593;29;20110;-77
2022/08/05 04:21:00;;;;;;;4.10;3.33;;;18.30;99.90;;;;;;4929335;29;20345;-77
2022/08/05 04:23:28;;;;;;;5.47;4.03;;;18.30;99.90;;;;;;4932087;29;20175;-77
2022/08/05 04:25:54;;;;;;;4.05;3.75;;;18.40;99.90;;;;;;4931459;29;20450;-77
2022/08/05 04:28:20;;;;;;;4.03;3.70;;;18.30;99.90;;;;;;4929961;29;20604;-77
2022/08/05 04:30:47;;;;;;;4.05;3.65;;;18.40;99.90;;;;;;4931171;29;20046;-78
2022/08/05 04:33:13;;;;;;;4.53;4.10;;;18.50;99.90;;;;;;4929581;29;20032;-78
2022/08/05 04:35:40;;;;;;;4.68;4.10;;;18.60;99.90;;;;;;4930849;29;20035;-78
2022/08/05 04:38:06;;;;;;;4.75;4.28;;;18.70;99.90;;;;;;4929509;29;20039;-78
2022/08/05 04:40:39;;;;;;;4.32;3.92;;;18.70;99.90;;;;;;4935426;29;20042;-77
2022/08/05 04:43:05;;;;;;;5.00;4.50;;;18.60;99.90;;;;;;4933085;29;20036;-77
2022/08/05 04:45:32;;;;;;;5.22;4.22;;;18.60;99.90;;;;;;4929902;29;20527;-78
2022/08/05 04:48:08;;;;;;;4.53;4.13;;;18.60;99.90;;;;;;4930814;29;20509;-78
2022/08/05 04:50:40;;;;;;;5.72;4.30;;;18.80;99.90;;;;;;4932815;29;20035;-78
2022/08/05 04:53:06;;;;;;;4.50;4.10;;;19.00;99.90;;;;;;4932599;29;20439;-78
2022/08/05 04:55:31;;;;;;;5.07;4.05;;;19.10;99.90;;;;;;4930690;29;20047;-78
2022/08/05 04:57:57;;;;;;;6.55;4.50;;;19.20;99.90;;;;;;4930661;29;20032;-78
2022/08/05 05:00:23;;;;;;;4.95;4.10;;;19.30;99.90;;;;;;4931176;29;20043;-78
2022/08/05 05:02:49;;;;;;;5.25;3.80;;;19.50;99.90;;;;;;4930091;29;20047;-78
2022/08/05 05:05:14;;;;;;;5.20;3.85;;;19.60;99.90;;;;;;4930893;29;20030;-78
2022/08/05 05:07:40;;;;;;;5.00;3.85;;;19.80;99.90;;;;;;4926945;29;20032;-78
2022/08/05 05:10:06;;;;;;;4.15;3.75;;;20.00;99.90;;;;;;4930941;29;20032;-78
2022/08/05 05:12:31;;;;;;;4.30;3.80;;;20.20;99.90;;;;;;4929675;29;20083;-78
2022/08/05 05:14:57;;;;;;;4.60;3.60;;;20.20;99.90;;;;;;4930714;29;20039;-79
2022/08/05 05:17:24;;;;;;;4.68;4.07;;;20.30;99.90;;;;;;4933357;29;20032;-79
2022/08/05 05:19:52;;;;;;;4.00;3.70;;;20.30;99.90;;;;;;4917616;29;20032;-79
2022/08/05 05:22:18;;;;;;;4.45;4.00;;;20.40;99.90;;;;;;4934820;29;20039;-79
2022/08/05 05:24:44;;;;;;;3.65;3.35;;;20.60;99.90;;;;;;4933365;29;20035;-79
2022/08/05 05:27:09;;;;;;;7.25;4.32;;;20.80;99.90;;;;;;4933163;29;20491;-78
2022/08/05 05:29:35;;;;;;;4.50;3.50;;;21.00;99.90;;;;;;4937062;29;20032;-78
2022/08/05 05:32:00;;;;;;;4.30;3.90;;;21.10;99.90;;;;;;4933006;29;20051;-78
2022/08/05 05:34:26;;;;;;;3.70;3.30;;;21.20;99.90;;;;;;4933149;29;20106;-78
2022/08/05 05:36:52;;;;;;;3.67;3.35;;;21.20;99.90;;;;;;4932257;29;20114;-78
2022/08/05 05:39:17;;;;;;;5.40;3.72;;;21.30;99.90;;;;;;4934056;29;20063;-78
2022/08/05 05:41:43;;;;;;;3.55;3.25;;;21.30;99.90;;;;;;4919992;29;20031;-78
2022/08/05 05:44:09;;;;;;;3.95;3.65;;;21.40;99.70;;;;;;4934507;29;20110;-78
2022/08/05 05:46:34;;;;;;;4.43;3.20;;;21.50;99.90;;;;;;4932912;29;20047;-78
2022/08/05 05:49:00;;;;;;;5.85;3.38;;;21.50;99.90;;;;;;4933195;29;20031;-78
2022/08/05 05:51:26;;;;;;;4.32;3.30;;;21.60;99.30;;;;;;4938628;29;20061;-79
2022/08/05 05:53:53;;;;;;;3.83;3.40;;;21.70;99.70;;;;;;4938324;29;20039;-78
2022/08/05 05:56:19;;;;;;;3.47;3.28;;;21.80;99.90;;;;;;4935694;29;20038;-78
2022/08/05 05:58:46;;;;;;;3.80;3.42;;;21.80;99.30;;;;;;4935301;29;20040;-78
2022/08/05 06:01:13;;;;;;;4.63;4.22;;;21.90;98.00;;;;;;4933346;29;20503;-78
2022/08/05 06:03:40;;;;;;;4.60;3.47;;;22.00;99.90;;;;;;4934060;29;20750;-78
2022/08/05 06:06:06;;;;;;;3.80;3.33;;;22.10;98.40;;;;;;4932917;29;20034;-78
2022/08/05 06:08:32;;;;;;;3.80;3.28;;;22.20;97.90;;;;;;4932335;29;20055;-78
2022/08/05 06:10:57;;;;;;;4.90;3.85;;;22.20;96.80;;;;;;4930899;29;20131;-78
2022/08/05 06:13:23;;;;;;;3.63;3.33;;;22.30;97.50;;;;;;4913968;29;20035;-78
2022/08/05 06:15:49;;;;;;;3.97;3.58;;;22.30;96.60;;;;;;4933853;29;20479;-78
2022/08/05 06:18:14;;;;;;;4.53;3.67;;;22.20;96.60;;;;;;4935761;29;20055;-78
2022/08/05 06:20:40;;;;;;;3.60;3.28;;;22.20;96.10;;;;;;4933879;29;20534;-79
2022/08/05 06:23:06;;;;;;;3.70;3.40;;;22.20;96.90;;;;;;4933234;29;20056;-79
2022/08/05 06:25:32;;;;;;;4.25;3.85;;;22.30;97.60;;;;;;4937692;28;20031;-79
2022/08/05 06:27:58;;;;;;;4.90;3.80;;;22.30;97.80;;;;;;4933956;29;20035;-79
2022/08/05 06:30:25;;;;;;;5.50;3.58;;;22.40;97.20;;;;;;4938743;29;20467;-79
2022/08/05 06:32:51;;;;;;;4.30;3.95;;;22.70;96.60;;;;;;4935540;29;20042;-79
2022/08/05 06:35:18;;;;;;;4.15;3.53;;;22.90;94.00;;;;;;4918445;29;20634;-79
2022/08/05 06:37:44;;;;;;;3.63;3.33;;;22.90;94.80;;;;;;4933547;29;20036;-79
2022/08/05 06:40:10;;;;;;;3.72;3.40;;;22.90;93.70;;;;;;4938050;29;20054;-79
2022/08/05 06:42:37;;;;;;;4.15;3.40;;;22.70;94.00;;;;;;4933934;29;20023;-79
2022/08/05 06:45:04;;;;;;;4.57;4.18;;;22.60;95.10;;;;;;4933775;29;20063;-79
2022/08/05 06:47:30;;;;;;;3.92;3.40;;;22.60;94.20;;;;;;4931026;29;20083;-79
2022/08/05 06:49:55;;;;;;;4.82;3.42;;;22.70;96.20;;;;;;4936892;29;20090;-79
2022/08/05 06:52:21;;;;;;;4.45;3.65;;;22.70;95.30;;;;;;4935395;29;20760;-78
2022/08/05 06:54:46;;;;;;;3.60;3.30;;;22.70;94.60;;;;;;4932303;29;20051;-78
2022/08/05 06:57:14;;;;;;;5.55;3.50;;;22.80;94.90;;;;;;4934622;29;20502;-78
2022/08/05 06:59:40;;;;;;;3.40;3.17;;;22.90;95.40;;;;;;4932972;29;20036;-78
2022/08/05 07:02:06;;;;;;;3.70;3.28;;;22.90;93.80;;;;;;4937722;29;20035;-78
2022/08/05 07:04:32;;;;;;;3.50;3.20;;;23.00;96.20;;;;;;4934757;29;20103;-78
2022/08/05 07:06:57;;;;;;;5.20;3.75;;;23.10;94.10;;;;;;4935056;29;20047;-79
2022/08/05 07:09:23;;;;;;;3.78;3.22;;;23.20;94.20;;;;;;4937283;29;20065;-78
2022/08/05 07:11:48;;;;;;;5.53;3.80;;;23.50;93.50;;;;;;4928787;29;20032;-78
2022/08/05 07:16:59;;;;;;;5.55;3.10;;;23.50;90.80;;;;;;4932519;29;20651;-78
2022/08/05 07:19:27;;;;;;;3.70;3.40;;;23.70;90.10;;;;;;4933090;29;20024;-79
2022/08/05 07:21:53;;;;;;;;;;;23.90;89.30;;;;;;4933322;29;20106;-79
2022/08/05 07:24:19;;;;;;;3.63;3.30;;;24.10;87.80;;;;;;4936660;29;19985;-79
2022/08/05 07:26:45;;;;;;;6.55;3.13;;;24.30;86.50;;;;;;4934258;29;20143;-79
2022/08/05 07:29:11;;;;;;;5.93;3.55;;;24.40;85.30;;;;;;4930173;29;20043;-79
2022/08/05 07:31:37;;;;;;;3.63;3.17;;;24.40;85.20;;;;;;4929663;29;20482;-78
2022/08/05 07:34:03;;;;;;;6.40;3.60;;;24.20;84.70;;;;;;4931718;29;20399;-78
2022/08/05 07:36:29;;;;;;;4.18;3.42;;;24.30;86.00;;;;;;4934909;29;20082;-79
2022/08/05 07:38:55;;;;;;;3.75;3.38;;;24.40;89.50;;;;;;4933738;29;20032;-79
2022/08/05 07:41:23;;;;;;;4.93;3.63;;;24.50;89.20;;;;;;4932667;29;20039;-80
2022/08/05 07:43:49;;;;;;;5.68;3.40;;;24.50;83.80;;;;;;4935939;29;20027;-80
2022/08/05 07:46:14;;;;;;;6.78;3.70;;;24.60;87.00;;;;;;4930311;29;20510;-80
2022/08/05 07:48:40;;;;;;;4.20;3.67;;;24.60;84.50;;;;;;4933048;29;20040;-80
2022/08/05 07:51:06;;;;;;;8.32;3.78;;;24.60;83.50;;;;;;4932751;29;20039;-80
2022/08/05 07:53:32;;;;;;;6.20;3.40;;;24.70;84.70;;;;;;4932162;29;20031;-80
2022/08/05 07:55:57;;;;;;;5.35;3.13;;;24.80;86.90;;;;;;4935447;29;20452;-80
2022/08/05 07:58:23;;;;;;;5.75;2.90;;;24.90;82.10;;;;;;4932471;29;20138;-80
2022/08/05 08:00:49;;;;;;;4.30;3.90;;;24.90;83.80;;;;;;4935526;29;20134;-80
2022/08/05 08:03:15;;;;;;;12.15;3.55;;;25.10;89.40;;;;;;4934898;29;20035;-80
2022/08/05 08:05:42;;;;;;;4.13;2.90;;;25.10;84.00;;;;;;4933579;29;20036;-80
2022/08/05 08:08:09;;;;;;;4.65;3.10;;;25.10;81.50;;;;;;4934263;29;20086;-80
2022/08/05 08:10:35;;;;;;;5.55;3.45;;;25.10;83.30;;;;;;4932603;29;20031;-80
2022/08/05 08:13:01;;;;;;;4.13;3.33;;;24.90;83.50;;;;;;4933162;29;20625;-80
2022/08/05 08:15:26;;;;;;;4.65;3.30;;;25.00;82.50;;;;;;4910259;29;20067;-79
2022/08/05 08:17:52;;;;;;;5.63;3.42;;;25.10;85.00;;;;;;4936956;29;20038;-79
2022/08/05 08:20:18;;;;;;;3.45;2.90;;;25.40;82.90;;;;;;4933531;29;20099;-79
2022/08/05 08:22:49;;;;;;;4.80;3.15;;;25.50;81.40;;;;;;4933573;29;20028;-79
2022/08/05 08:25:14;;;;;;;4.18;2.83;;;25.80;82.50;;;;;;4934208;29;20126;-80
2022/08/05 08:27:41;;;;;;;3.80;2.65;;;26.10;82.00;;;;;;4933714;29;20118;-80
2022/08/05 08:30:10;;;;;;;3.58;2.88;;;26.40;80.90;;;;;;4929862;29;20015;-80
2022/08/05 08:32:36;;;;;;;3.45;2.63;;;26.50;73.40;;;;;;4931307;29;20135;-80
2022/08/05 08:35:01;;;;;;;5.35;2.35;;;26.50;71.80;;;;;;4935853;29;20118;-80
2022/08/05 08:37:27;;;;;;;11.75;4.32;;;26.60;68.50;;;;;;4931588;28;20039;-80
2022/08/05 08:39:52;;;;;;;2.60;2.40;;;26.60;65.80;;;;;;4933620;29;20079;-80
2022/08/05 08:42:20;;;;;;;3.80;2.65;;;26.60;64.60;;;;;;4931966;29;20020;-80
2022/08/05 08:44:46;;;;;;;;;;;26.70;68.90;;;;;;4934999;29;20039;-81
2022/08/05 08:47:13;;;;;;;2.65;2.28;;;27.00;64.40;;;;;;4933413;29;19998;-80
2022/08/05 08:49:44;;;;;;;3.67;2.57;;;27.30;67.10;;;;;;4933846;29;20051;-80
2022/08/05 08:52:22;;;;;;;4.25;2.63;;;27.50;65.00;;;;;;4936461;29;20370;-80
2022/08/05 08:54:50;;;;;;;3.05;2.60;;;27.80;60.80;;;;;;4921782;29;20036;-80
2022/08/05 08:57:16;;;;;;;3.90;2.47;;;27.80;57.00;;;;;;4916965;29;20039;-80
2022/08/05 08:59:42;;;;;;;3.25;2.35;;;27.70;58.80;;;;;;4931169;29;20036;-80
2022/08/05 09:02:08;;;;;;;3.28;2.45;;;27.60;59.70;;;;;;4939455;29;20103;-81
2022/08/05 09:04:36;;;;;;;3.17;2.35;;;27.70;61.00;;;;;;4939993;29;20037;-80
2022/08/05 09:07:04;;;;;;;3.35;2.20;;;27.90;57.50;;;;;;4938700;29;20398;-80
2022/08/05 09:09:31;;;;;;;3.38;2.53;;;27.90;56.10;;;;;;4936157;29;20467;-80
2022/08/05 09:11:57;;;;;;;3.27;2.60;;;27.90;57.00;;;;;;4937216;29;20091;-80
2022/08/05 09:14:23;;;;;;;2.63;2.35;;;27.90;55.60;;;;;;4937170;29;20047;-80
2022/08/05 09:16:48;;;;;;;2.75;2.40;;;28.20;57.80;;;;;;4934831;29;20637;-80
2022/08/05 09:19:14;;;;;;;3.33;2.75;;;28.60;54.00;;;;;;4936563;29;20114;-80
2022/08/05 09:21:40;;;;;;;2.75;2.25;;;28.50;57.00;;;;;;4918016;29;20085;-80
2022/08/05 09:24:08;;;;;;;3.65;2.60;;;28.80;55.20;;;;;;4938060;29;20031;-80
2022/08/05 09:26:35;;;;;;;2.53;2.28;;;28.90;51.60;;;;;;4935147;29;20059;-80
2022/08/05 09:29:05;;;;;;;3.13;2.70;;;28.60;49.60;;;;;;4935380;29;20031;-80
2022/08/05 09:31:31;;;;;;;2.67;2.08;;;28.70;49.70;;;;;;4933527;29;20046;-81
2022/08/05 09:33:59;;;;;;;2.20;2.00;;;28.90;50.10;;;;;;4937907;29;20036;-80
2022/08/05 09:36:48;;;;;;;2.33;2.13;;;28.80;50.80;;;;;;4936285;29;20040;-80
2022/08/05 09:39:18;;;;;;;2.72;2.17;;;29.20;49.60;;;;;;4938701;29;20107;-82
2022/08/05 09:42:20;;;;;;;2.40;1.90;;;29.30;47.10;;;;;;4933802;29;20035;-82
2022/08/05 09:44:48;;;;;;;2.10;1.90;;;29.60;47.50;;;;;;4916604;29;20047;-81
2022/08/05 09:47:19;;;;;;;2.50;2.03;;;29.70;46.20;;;;;;4932402;29;20032;-82
2022/08/05 09:49:50;;;;;;;2.35;2.10;;;29.60;45.40;;;;;;4935623;29;20043;-81
2022/08/05 09:52:35;;;;;;;2.33;2.10;;;29.80;44.10;;;;;;4935241;29;20036;-81
2022/08/05 09:55:11;;;;;;;2.28;2.10;;;30.10;46.30;;;;;;4934966;29;20047;-82
2022/08/05 09:57:41;;;;;;;2.35;1.83;;;30.10;44.30;;;;;;4934230;29;20036;-82
2022/08/05 10:00:13;;;;;;;1.95;1.77;;;30.10;45.50;;;;;;4933969;29;20099;-82
2022/08/05 10:02:42;;;;;;;1.90;1.80;;;30.20;44.30;;;;;;4938019;29;20039;-81
2022/08/05 10:05:14;;;;;;;2.08;1.98;;;30.30;43.80;;;;;;4934533;29;20035;-81
2022/08/05 10:07:52;;;;;;;2.25;2.05;;;30.50;43.10;;;;;;4936309;29;20035;-81
2022/08/05 10:10:23;;;;;;;1.88;1.60;;;30.50;42.50;;;;;;4936096;29;20111;-81
2022/08/05 10:12:52;;;;;;;1.95;1.73;;;30.40;42.40;;;;;;4934622;29;20023;-82
2022/08/05 10:15:29;;;;;;;2.20;1.80;;;30.30;44.90;;;;;;4934656;29;20374;-81
2022/08/05 10:18:13;;;;;;;3.33;2.15;;;30.40;44.30;;;;;;4934421;29;20047;-81
2022/08/05 10:20:47;;;;;;;2.53;1.88;;;30.60;43.00;;;;;;4930420;29;20166;-81
2022/08/05 10:23:34;;;;;;;2.85;2.03;;;30.50;44.50;;;;;;4933960;29;20095;-81
2022/08/05 10:26:07;;;;;;;1.90;1.80;;;30.60;42.20;;;;;;4938019;29;20110;-82
2022/08/05 10:28:34;;;;;;;2.50;2.30;;;30.50;43.70;;;;;;4936058;29;20027;-82
2022/08/05 10:31:00;;;;;;;2.63;1.92;;;30.40;42.60;;;;;;4933810;29;20047;-81
2022/08/05 10:33:30;;;;;;;2.58;1.92;;;30.30;43.60;;;;;;4933629;29;20118;-82
2022/08/05 10:35:56;;;;;;;2.58;2.13;;;30.40;43.00;;;;;;4932882;29;20047;-81
2022/08/05 10:38:25;;;;;;;2.30;2.10;;;30.50;42.70;;;;;;4936098;29;20087;-81
2022/08/05 10:40:50;;;;;;;4.82;2.00;;;30.30;45.10;;;;;;4918500;29;20146;-81
2022/08/05 10:43:44;;;;;;;2.28;2.17;;;30.10;42.90;;;;;;4935871;29;20530;-82
2022/08/05 10:46:12;;;;;;;2.72;2.10;;;30.30;46.30;;;;;;4930856;29;20475;-82
2022/08/05 10:48:46;;;;;;;3.17;2.10;;;30.00;46.10;;;;;;4933436;29;20028;-82
2022/08/05 10:51:12;;;;;;;3.45;2.25;;;30.10;44.50;;;;;;4933175;29;20031;-82
2022/08/05 10:53:43;;;;;;;2.63;2.42;;;30.00;42.90;;;;;;4917072;29;20074;-82
2022/08/05 10:56:15;;;;;;;3.10;2.10;;;30.10;45.00;;;;;;4935190;29;20050;-82
2022/08/05 10:59:03;;;;;;;2.40;2.20;;;30.10;44.60;;;;;;4933937;29;20063;-82
2022/08/05 11:01:33;;;;;;;3.50;2.35;;;30.00;45.90;;;;;;4933735;29;20127;-82
2022/08/05 11:04:10;;;;;;;3.42;2.35;;;29.70;45.30;;;;;;4935933;29;20558;-81
2022/08/05 11:06:56;;;;;;;2.30;2.10;;;29.70;45.00;;;;;;4933295;29;20846;-82
2022/08/05 11:09:24;;;;;;;3.47;2.22;;;29.80;45.90;;;;;;4933310;29;20079;-81
2022/08/05 11:11:51;;;;;;;20.10;3.08;;;29.80;43.40;;;;;;4931331;29;20079;-82
2022/08/05 11:14:25;;;;;;;;;;;29.80;43.60;;;;;;4946227;29;20039;-81
2022/08/05 11:17:29;;;;;;;3.03;2.35;;;30.00;47.00;;;;;;4933541;29;20330;-81
2022/08/05 11:19:57;;;;;;;3.35;2.05;;;30.00;43.60;;;;;;4935244;29;20120;-81
2022/08/05 11:22:47;;;;;;;4.05;2.40;;;30.00;41.90;;;;;;4931475;29;20036;-81
2022/08/05 11:25:45;;;;;;;2.45;2.30;;;30.10;42.30;;;;;;4938145;29;20039;-81
2022/08/05 11:28:10;;;;;;;2.72;2.03;;;30.20;42.60;;;;;;4938651;29;20035;-81
2022/08/05 11:31:02;;;;;;;2.53;2.33;;;30.20;42.30;;;;;;4935853;29;20603;-81
2022/08/05 11:33:29;;;;;;;3.95;2.55;;;30.30;43.70;;;;;;4894702;29;20047;-82
2022/08/05 11:36:07;;;;;;;2.38;2.17;;;30.30;43.30;;;;;;4935518;29;20035;-81
2022/08/05 11:38:47;;;;;;;2.30;2.10;;;30.40;42.40;;;;;;4936485;29;20039;-81
2022/08/05 11:41:16;;;;;;;3.13;2.33;;;30.50;42.00;;;;;;4936566;29;20046;-81
2022/08/05 11:43:51;;;;;;;2.17;2.08;;;30.50;41.20;;;;;;4938084;29;20362;-81
2022/08/05 11:46:17;;;;;;;2.72;2.22;;;30.40;40.60;;;;;;4934175;29;20254;-81
2022/08/05 11:48:43;;;;;;;2.78;2.10;;;30.30;41.10;;;;;;4936292;29;20118;-82
2022/08/05 11:51:09;;;;;;;2.83;2.20;;;30.30;43.10;;;;;;4931319;29;20530;-81
2022/08/05 11:53:35;;;;;;;3.65;2.22;;;30.40;42.20;;;;;;4934303;29;20155;-81
2022/08/05 11:56:01;;;;;;;2.47;2.28;;;30.40;41.50;;;;;;4933646;29;20114;-81
2022/08/05 11:58:34;;;;;;;5.80;2.40;;;30.40;41.70;;;;;;4917490;29;20285;-82
2022/08/05 12:01:14;;;;;;;4.00;2.22;;;30.30;41.80;;;;;;4917261;29;20040;-81
2022/08/05 12:03:54;;;;;;;3.35;2.47;;;30.40;42.30;;;;;;4917329;29;20035;-81
2022/08/05 12:06:22;;;;;;;4.18;2.20;;;30.70;41.40;;;;;;4933620;29;20062;-81
2022/08/05 12:08:53;;;;;;;3.42;2.20;;;30.90;40.60;;;;;;4932493;29;20059;-81
2022/08/05 12:11:27;;;;;;;2.30;2.13;;;30.90;41.50;;;;;;4932891;29;20035;-81
2022/08/05 12:14:10;;;;;;;4.00;2.38;;;31.10;39.90;;;;;;4928510;29;20476;-81
2022/08/05 12:16:46;;;;;;;3.72;2.28;;;30.60;40.40;;;;;;4931845;29;20035;-80
2022/08/05 12:19:13;;;;;;;2.83;2.20;;;30.60;41.30;;;;;;4932151;29;20115;-80
2022/08/05 12:21:47;;;;;;;3.47;2.40;;;30.70;41.90;;;;;;4934759;29;20781;-81
2022/08/05 12:24:18;;;;;;;2.58;2.20;;;30.40;41.00;;;;;;4934303;29;20047;-81
2022/08/05 12:26:50;;;;;;;2.85;2.33;;;30.00;41.40;;;;;;4933774;29;20161;-81
2022/08/05 12:29:16;;;;;;;4.00;2.45;;;29.80;41.50;;;;;;4932279;29;20059;-80
2022/08/05 12:31:58;;;;;;;4.32;2.75;;;29.80;41.90;;;;;;4932829;29;20048;-80
2022/08/05 12:34:30;;;;;;;2.60;2.35;;;30.00;43.50;;;;;;4930962;29;20034;-81
2022/08/05 12:37:00;;;;;;;3.25;2.40;;;30.20;42.70;;;;;;4933622;29;20039;-81
2022/08/05 12:39:26;;;;;;;2.53;2.30;;;30.20;42.80;;;;;;4933567;29;20047;-81
2022/08/05 12:41:58;;;;;;;3.13;2.45;;;30.40;42.70;;;;;;4933349;29;20043;-80
2022/08/05 12:44:24;;;;;;;2.67;2.30;;;30.40;45.40;;;;;;4934076;29;20070;-81
2022/08/05 12:46:54;;;;;;;2.75;2.30;;;30.50;42.70;;;;;;4938991;29;20032;-81
2022/08/05 12:49:21;;;;;;;2.55;2.35;;;30.50;43.30;;;;;;4933047;29;20126;-82
2022/08/05 12:51:47;;;;;;;2.75;2.47;;;30.60;43.80;;;;;;4935194;29;20390;-81
2022/08/05 12:54:29;;;;;;;3.10;2.33;;;30.60;43.10;;;;;;4918856;29;20059;-80
2022/08/05 12:57:03;;;;;;;2.72;2.33;;;30.60;42.90;;;;;;4931817;29;20059;-80
2022/08/05 12:59:30;;;;;;;2.70;2.38;;;30.50;42.50;;;;;;4932418;29;20673;-82